Time;durP1;ratioP1;P1;durP2;ratioP2;P2;SDS_P1;SDS_P2;PMS_P1;PMS_P2;Temp;Humidity;BMP_temperature;BMP_pressure;BME280_temperature;BME280_humidity;BME280_pressure;Samples;Min_cycle;Max_cycle;Signal;HPM_P1;HPM_P2
2023/02/18 00:00:18;;;;;;;14.93;8.48;;;;;;;;;;5072036;28;20108;-76
2023/02/18 00:02:44;;;;;;;14.48;7.88;;;;;;;;;;5073630;28;20016;-76
2023/02/18 00:05:09;;;;;;;14.82;7.43;;;;;;;;;;5071930;28;20017;-76
2023/02/18 00:07:35;;;;;;;12.98;5.97;;;;;;;;;;5073699;28;20464;-76
2023/02/18 00:10:01;;;;;;;14.77;6.88;;;;;;;;;;5071209;28;20130;-76
2023/02/18 00:12:26;;;;;;;18.13;8.40;;;;;;;;;;5073508;28;20020;-76
2023/02/18 00:14:51;;;;;;;13.57;6.47;;;;;;;;;;5072326;28;20033;-76
2023/02/18 00:17:16;;;;;;;15.27;5.90;;;;;;;;;;5073572;28;20017;-76
2023/02/18 00:19:42;;;;;;;16.15;8.57;;;;;;;;;;5072038;28;20063;-75
2023/02/18 00:22:07;;;;;;;18.63;7.75;;;;;;;;;;5072455;28;20133;-75
2023/02/18 00:24:32;;;;;;;16.23;7.95;;;;;;;;;;5071949;28;20012;-75
2023/02/18 00:26:57;;;;;;;16.02;6.63;;;;;;;;;;5071999;28;20040;-75
2023/02/18 00:29:22;;;;;;;13.80;7.00;;;;;;;;;;5073045;28;20450;-75
2023/02/18 00:31:48;;;;;;;13.68;5.65;;;;;;;;;;5071939;28;20016;-76
2023/02/18 00:34:13;;;;;;;19.27;9.10;;;;;;;;;;5070563;28;20058;-75
2023/02/18 00:36:38;;;;;;;16.20;6.03;;;;;;;;;;5071661;28;20028;-75
2023/02/18 00:39:05;;;;;;;14.40;6.88;;;;;;;;;;5071515;28;20119;-76
2023/02/18 00:41:31;;;;;;;15.50;6.07;;;;;;;;;;5072734;28;20161;-76
2023/02/18 00:43:56;;;;;;;16.42;7.28;;;;;;;;;;5072147;28;20029;-76
2023/02/18 00:46:21;;;;;;;13.68;6.05;;;;;;;;;;5072384;28;20349;-75
2023/02/18 00:48:47;;;;;;;17.98;7.00;;;;;;;;;;5070763;28;20039;-76
2023/02/18 00:51:12;;;;;;;16.73;7.15;;;;;;;;;;5072450;28;20039;-76
2023/02/18 00:53:38;;;;;;;14.13;6.47;;;;;;;;;;5072534;28;20058;-76
2023/02/18 00:56:03;;;;;;;12.75;5.80;;;;;;;;;;5070282;28;20043;-75
2023/02/18 00:58:28;;;;;;;13.90;7.03;;;;;;;;;;5072543;28;20103;-76
2023/02/18 01:00:54;;;;;;;15.50;5.70;;;;;;;;;;5072536;28;20084;-76
2023/02/18 01:03:19;;;;;;;15.55;7.25;;;;;;;;;;5072349;28;20028;-76
2023/02/18 01:05:44;;;;;;;10.52;4.93;;;;;;;;;;5072215;28;20439;-76
2023/02/18 01:08:10;;;;;;;13.35;5.97;;;;;;;;;;5071904;28;20023;-76
2023/02/18 01:10:38;;;;;;;13.63;5.72;;;;;;;;;;5071100;28;20039;-76
2023/02/18 01:13:04;;;;;;;10.60;4.82;;;;;;;;;;5072269;28;20093;-76
2023/02/18 01:15:29;;;;;;;11.32;5.20;;;;;;;;;;5072276;28;20092;-76
2023/02/18 01:17:54;;;;;;;15.68;6.15;;;;;;;;;;5071082;28;20024;-76
2023/02/18 01:20:19;;;;;;;11.45;5.15;;;;;;;;;;5070989;28;20064;-76
2023/02/18 01:22:45;;;;;;;13.82;4.97;;;;;;;;;;5072123;28;20016;-76
2023/02/18 01:25:10;;;;;;;13.15;4.72;;;;;;;;;;5071760;28;20074;-76
2023/02/18 01:27:36;;;;;;;9.57;4.38;;;;;;;;;;5075555;28;20029;-76
2023/02/18 01:30:02;;;;;;;12.38;5.75;;;;;;;;;;5084546;28;20031;-76
2023/02/18 01:32:28;;;;;;;12.73;5.20;;;;;;;;;;5092584;28;20439;-76
2023/02/18 01:34:53;;;;;;;10.70;3.92;;;;;;;;;;5092345;28;20027;-76
2023/02/18 01:37:18;;;;;;;12.50;5.82;;;;;;;;;;5086174;28;20024;-76
2023/02/18 01:39:43;;;;;;;14.80;5.00;;;;;;;;;;5091778;28;20109;-76
2023/02/18 01:42:22;;;;;;;11.48;4.18;;;;;;;;;;5092042;28;20039;-76
2023/02/18 01:44:48;;;;;;;12.55;4.32;;;;;;;;;;5054604;28;20028;-75
2023/02/18 01:47:13;;;;;;;10.35;5.00;;;;;;;;;;5076024;28;20012;-76
2023/02/18 01:49:38;;;;;;;8.52;3.53;;;;;;;;;;5089772;28;20058;-76
2023/02/18 01:52:06;;;;;;;9.57;4.68;;;;;;;;;;5092287;28;20127;-76
2023/02/18 01:54:34;;;;;;;7.82;3.95;;;;;;;;;;5090047;28;20329;-76
2023/02/18 01:57:05;;;;;;;8.00;3.33;;;;;;;;;;5090523;28;20036;-76
2023/02/18 01:59:37;;;;;;;9.02;4.38;;;;;;;;;;5090211;28;20024;-76
2023/02/18 02:02:03;;;;;;;10.73;4.15;;;;;;;;;;5088680;28;20028;-76
2023/02/18 02:04:28;;;;;;;9.52;3.42;;;;;;;;;;5091704;28;20039;-76
2023/02/18 02:06:53;;;;;;;5.18;2.40;;;;;;;;;;5091598;28;20039;-75
2023/02/18 02:09:19;;;;;;;8.95;3.13;;;;;;;;;;5091543;28;20077;-76
2023/02/18 02:11:47;;;;;;;6.03;2.55;;;;;;;;;;5091632;28;20087;-76
2023/02/18 02:14:24;;;;;;;7.60;3.83;;;;;;;;;;5088487;28;20073;-76
2023/02/18 02:16:56;;;;;;;5.68;2.40;;;;;;;;;;5089958;28;20020;-75
2023/02/18 02:19:40;;;;;;;6.68;2.00;;;;;;;;;;5090116;28;20524;-76
2023/02/18 02:22:08;;;;;;;5.47;2.00;;;;;;;;;;5091436;28;20043;-75
2023/02/18 02:24:33;;;;;;;5.40;2.05;;;;;;;;;;5091749;28;20485;-75
2023/02/18 02:27:16;;;;;;;3.58;1.80;;;;;;;;;;5076422;28;20020;-76
2023/02/18 02:30:02;;;;;;;5.03;2.15;;;;;;;;;;5079920;28;20024;-75
2023/02/18 02:32:37;;;;;;;5.07;1.90;;;;;;;;;;5090001;28;20032;-75
2023/02/18 02:35:20;;;;;;;7.03;2.10;;;;;;;;;;5084766;28;20016;-75
2023/02/18 02:38:04;;;;;;;4.53;1.50;;;;;;;;;;5064231;28;20027;-76
2023/02/18 02:40:37;;;;;;;4.63;1.60;;;;;;;;;;5095586;28;20039;-75
2023/02/18 02:43:02;;;;;;;2.90;1.52;;;;;;;;;;5095938;28;20024;-75
2023/02/18 02:45:40;;;;;;;2.33;1.05;;;;;;;;;;5083217;28;20467;-75
2023/02/18 02:48:22;;;;;;;2.42;1.10;;;;;;;;;;5061371;28;20429;-75
2023/02/18 02:50:47;;;;;;;2.65;0.93;;;;;;;;;;5091269;28;20024;-76
2023/02/18 02:53:21;;;;;;;1.92;0.77;;;;;;;;;;5095739;28;20091;-75
2023/02/18 02:55:46;;;;;;;1.77;0.90;;;;;;;;;;5095640;28;20015;-75
2023/02/18 02:58:15;;;;;;;1.67;0.70;;;;;;;;;;5086812;28;20367;-75
2023/02/18 03:00:59;;;;;;;1.83;1.02;;;;;;;;;;5094005;28;20032;-75
2023/02/18 03:03:27;;;;;;;1.50;0.95;;;;;;;;;;5094020;28;20154;-75
2023/02/18 03:05:52;;;;;;;1.40;0.80;;;;;;;;;;5095323;28;20022;-75
2023/02/18 03:08:28;;;;;;;1.45;0.90;;;;;;;;;;5093435;28;20095;-75
2023/02/18 03:10:59;;;;;;;1.58;0.70;;;;;;;;;;5088098;28;20031;-76
2023/02/18 03:13:31;;;;;;;1.83;0.80;;;;;;;;;;5094841;28;20039;-75
2023/02/18 03:16:06;;;;;;;1.05;0.60;;;;;;;;;;5094740;28;20351;-75
2023/02/18 03:18:45;;;;;;;0.95;0.70;;;;;;;;;;5095155;28;20089;-75
2023/02/18 03:21:13;;;;;;;1.17;0.80;;;;;;;;;;5084796;28;20032;-76
2023/02/18 03:23:48;;;;;;;1.55;0.70;;;;;;;;;;5107700;27;20383;-76
2023/02/18 03:26:15;;;;;;;2.00;0.90;;;;;;;;;;5094326;28;20035;-76
2023/02/18 03:28:41;;;;;;;1.15;0.70;;;;;;;;;;5093616;28;20024;-75
2023/02/18 03:31:14;;;;;;;1.25;0.80;;;;;;;;;;5093267;28;20089;-75
2023/02/18 03:33:41;;;;;;;1.17;0.80;;;;;;;;;;5085468;28;20024;-75
2023/02/18 03:36:07;;;;;;;1.27;0.80;;;;;;;;;;5094413;28;20093;-75
2023/02/18 03:38:35;;;;;;;0.75;0.40;;;;;;;;;;5094656;28;20113;-75
2023/02/18 03:41:00;;;;;;;2.38;0.80;;;;;;;;;;5088923;28;20032;-75
2023/02/18 03:43:26;;;;;;;1.27;0.60;;;;;;;;;;5086448;28;20012;-75
2023/02/18 03:45:51;;;;;;;1.35;0.70;;;;;;;;;;5083761;28;20019;-75
2023/02/18 03:48:16;;;;;;;2.70;0.98;;;;;;;;;;5092772;28;20085;-75
2023/02/18 03:50:41;;;;;;;1.00;0.68;;;;;;;;;;5092984;28;20020;-75
2023/02/18 03:53:07;;;;;;;0.80;0.50;;;;;;;;;;5087759;28;20366;-75
2023/02/18 03:55:32;;;;;;;1.27;0.60;;;;;;;;;;5094393;28;20039;-75
2023/02/18 03:57:57;;;;;;;1.50;0.57;;;;;;;;;;5094139;28;20435;-75
2023/02/18 04:00:22;;;;;;;0.88;0.60;;;;;;;;;;5092760;28;20016;-75
2023/02/18 04:02:47;;;;;;;1.23;0.68;;;;;;;;;;5093925;28;20020;-75
2023/02/18 04:05:13;;;;;;;0.95;0.60;;;;;;;;;;5089816;28;20494;-75
2023/02/18 04:07:38;;;;;;;0.57;0.40;;;;;;;;;;5092733;28;20048;-76
2023/02/18 04:10:04;;;;;;;1.10;0.52;;;;;;;;;;5093934;28;20443;-75
2023/02/18 04:12:29;;;;;;;0.95;0.73;;;;;;;;;;5094246;28;20016;-75
2023/02/18 04:14:54;;;;;;;1.02;0.68;;;;;;;;;;5092015;28;20058;-75
2023/02/18 04:17:19;;;;;;;1.33;0.73;;;;;;;;;;5089230;28;20451;-75
2023/02/18 04:19:45;;;;;;;1.10;0.70;;;;;;;;;;5093705;28;20032;-75
2023/02/18 04:22:10;;;;;;;1.10;0.50;;;;;;;;;;5092429;28;20085;-75
2023/02/18 04:24:35;;;;;;;1.05;0.63;;;;;;;;;;5093322;28;20515;-76
2023/02/18 04:27:00;;;;;;;1.30;0.73;;;;;;;;;;5094057;28;20082;-76
2023/02/18 04:29:26;;;;;;;0.95;0.40;;;;;;;;;;5089529;28;20409;-75
2023/02/18 04:31:51;;;;;;;0.95;0.55;;;;;;;;;;5093784;28;20016;-76
2023/02/18 04:34:16;;;;;;;1.10;0.60;;;;;;;;;;5093429;28;20351;-76
2023/02/18 04:36:41;;;;;;;1.10;0.68;;;;;;;;;;5093572;28;20417;-76
2023/02/18 04:39:06;;;;;;;0.75;0.52;;;;;;;;;;5092995;28;20020;-75
2023/02/18 04:41:32;;;;;;;1.38;0.70;;;;;;;;;;5082992;28;20032;-75
2023/02/18 04:43:58;;;;;;;1.30;0.80;;;;;;;;;;5093299;28;20481;-75
2023/02/18 04:46:23;;;;;;;0.80;0.60;;;;;;;;;;5073168;28;20465;-75
2023/02/18 04:48:48;;;;;;;1.15;0.70;;;;;;;;;;5091901;28;20138;-75
2023/02/18 04:51:14;;;;;;;2.10;0.82;;;;;;;;;;5091343;28;20123;-75
2023/02/18 04:53:39;;;;;;;1.50;0.70;;;;;;;;;;5088006;28;20023;-75
2023/02/18 04:56:04;;;;;;;1.05;0.65;;;;;;;;;;5093102;28;20034;-75
2023/02/18 04:58:29;;;;;;;1.08;0.60;;;;;;;;;;5091929;28;20024;-75
2023/02/18 05:00:58;;;;;;;1.95;0.93;;;;;;;;;;5092687;28;21058;-75
2023/02/18 05:03:23;;;;;;;1.30;0.70;;;;;;;;;;5093252;28;20027;-75
2023/02/18 05:05:48;;;;;;;1.60;0.60;;;;;;;;;;5087499;28;20069;-75
2023/02/18 05:08:15;;;;;;;1.55;0.70;;;;;;;;;;5091507;28;20012;-75
2023/02/18 05:10:40;;;;;;;1.15;0.80;;;;;;;;;;5093010;28;20463;-75
2023/02/18 05:13:05;;;;;;;1.08;0.88;;;;;;;;;;5092806;28;20066;-75
2023/02/18 05:15:30;;;;;;;1.80;0.82;;;;;;;;;;5092729;28;20047;-75
2023/02/18 05:17:55;;;;;;;1.27;0.82;;;;;;;;;;5089042;28;20207;-75
2023/02/18 05:20:21;;;;;;;1.25;0.70;;;;;;;;;;5092302;28;20024;-75
2023/02/18 05:22:46;;;;;;;1.95;0.68;;;;;;;;;;5092524;28;20023;-75
2023/02/18 05:25:11;;;;;;;1.08;0.60;;;;;;;;;;5090831;28;20412;-76
2023/02/18 05:27:36;;;;;;;1.83;1.00;;;;;;;;;;5090863;28;20107;-75
2023/02/18 05:30:02;;;;;;;1.45;0.88;;;;;;;;;;5088345;28;20473;-75
2023/02/18 05:32:27;;;;;;;1.65;0.82;;;;;;;;;;5092366;28;20061;-75
2023/02/18 05:34:52;;;;;;;1.38;0.90;;;;;;;;;;5092145;28;20101;-75
2023/02/18 05:37:17;;;;;;;2.55;0.80;;;;;;;;;;5092192;28;20383;-75
2023/02/18 05:39:43;;;;;;;1.25;0.60;;;;;;;;;;5091086;28;20039;-75
2023/02/18 05:42:09;;;;;;;1.17;0.75;;;;;;;;;;5087692;28;20053;-75
2023/02/18 05:44:34;;;;;;;1.58;0.63;;;;;;;;;;5086922;28;20058;-75
2023/02/18 05:47:01;;;;;;;1.13;0.70;;;;;;;;;;5077533;28;20529;-75
2023/02/18 05:49:26;;;;;;;1.60;0.90;;;;;;;;;;5091954;28;20020;-75
2023/02/18 05:51:52;;;;;;;1.63;0.65;;;;;;;;;;5092086;28;20168;-75
2023/02/18 05:54:17;;;;;;;1.30;0.90;;;;;;;;;;5075319;28;20455;-75
2023/02/18 05:56:42;;;;;;;2.08;1.02;;;;;;;;;;5092131;28;20028;-75
2023/02/18 05:59:08;;;;;;;2.95;1.02;;;;;;;;;;5090328;28;20024;-75
2023/02/18 06:01:33;;;;;;;2.65;0.80;;;;;;;;;;5092056;28;20070;-75
2023/02/18 06:03:58;;;;;;;2.25;1.02;;;;;;;;;;5090982;28;20034;-75
2023/02/18 06:06:23;;;;;;;1.33;0.60;;;;;;;;;;5088599;28;20085;-75
2023/02/18 06:08:49;;;;;;;1.75;0.90;;;;;;;;;;5090650;28;20019;-75
2023/02/18 06:11:14;;;;;;;3.38;0.60;;;;;;;;;;5091965;28;20043;-75
2023/02/18 06:13:39;;;;;;;1.67;0.88;;;;;;;;;;5086107;28;20027;-75
2023/02/18 06:16:04;;;;;;;1.00;0.60;;;;;;;;;;5091676;28;20447;-75
2023/02/18 06:18:29;;;;;;;1.15;0.80;;;;;;;;;;5091800;28;20098;-75
2023/02/18 06:20:55;;;;;;;2.35;0.93;;;;;;;;;;5089983;28;20044;-75
2023/02/18 06:23:20;;;;;;;1.75;0.68;;;;;;;;;;5084546;28;20020;-75
2023/02/18 06:25:47;;;;;;;2.30;0.65;;;;;;;;;;5091330;28;20020;-76
2023/02/18 06:28:12;;;;;;;0.82;0.47;;;;;;;;;;5090131;28;20019;-75
2023/02/18 06:30:38;;;;;;;1.25;0.68;;;;;;;;;;5090146;28;20023;-76
2023/02/18 06:33:03;;;;;;;3.30;0.60;;;;;;;;;;5090280;28;20518;-75
2023/02/18 06:35:28;;;;;;;0.73;0.30;;;;;;;;;;5079581;28;20044;-75
2023/02/18 06:37:53;;;;;;;4.65;1.45;;;;;;;;;;5092160;28;20368;-76
2023/02/18 06:40:19;;;;;;;1.35;0.60;;;;;;;;;;5090047;28;20016;-75
2023/02/18 06:42:44;;;;;;;8.15;0.98;;;;;;;;;;5091358;28;20028;-75
2023/02/18 06:45:09;;;;;;;3.08;0.65;;;;;;;;;;5076188;28;20498;-75
2023/02/18 06:47:34;;;;;;;1.88;0.50;;;;;;;;;;5073187;28;20150;-76
2023/02/18 06:49:59;;;;;;;6.43;0.70;;;;;;;;;;5091357;28;20032;-75
2023/02/18 06:52:25;;;;;;;1.58;0.90;;;;;;;;;;5091430;28;20103;-75
2023/02/18 06:54:50;;;;;;;3.30;0.60;;;;;;;;;;5089938;28;20723;-75
2023/02/18 06:57:15;;;;;;;3.40;0.60;;;;;;;;;;5091435;28;20012;-75
2023/02/18 06:59:41;;;;;;;0.52;0.28;;;;;;;;;;5078503;28;20497;-76
2023/02/18 07:02:06;;;;;;;4.75;1.30;;;;;;;;;;5090021;28;20059;-75
2023/02/18 07:04:31;;;;;;;4.55;0.90;;;;;;;;;;5090738;28;20013;-75
2023/02/18 07:06:56;;;;;;;2.75;0.68;;;;;;;;;;5089984;28;20089;-75
2023/02/18 07:09:22;;;;;;;2.17;0.80;;;;;;;;;;5089468;28;20103;-75
2023/02/18 07:11:47;;;;;;;4.65;0.70;;;;;;;;;;5080068;28;20021;-76
2023/02/18 07:14:12;;;;;;;4.70;0.68;;;;;;;;;;5070232;28;20026;-76
2023/02/18 07:16:37;;;;;;;5.00;1.05;;;;;;;;;;5070001;28;20081;-76
2023/02/18 07:19:02;;;;;;;1.73;0.88;;;;;;;;;;5069268;28;20017;-76
2023/02/18 07:21:28;;;;;;;2.75;0.82;;;;;;;;;;5087286;28;20060;-76
2023/02/18 07:23:53;;;;;;;5.72;0.85;;;;;;;;;;5086292;28;20111;-76
2023/02/18 07:26:18;;;;;;;3.83;1.00;;;;;;;;;;5088375;28;20016;-76
2023/02/18 07:28:43;;;;;;;1.10;0.80;;;;;;;;;;5094615;28;20017;-76
2023/02/18 07:31:09;;;;;;;3.72;1.40;;;;;;;;;;5077865;28;20461;-76
2023/02/18 07:33:34;;;;;;;3.72;0.80;;;;;;;;;;5074928;28;20098;-76
2023/02/18 07:36:00;;;;;;;1.27;0.60;;;;;;;;;;5077797;28;20046;-76
2023/02/18 07:38:26;;;;;;;2.97;0.70;;;;;;;;;;5086021;28;20056;-76
2023/02/18 07:40:52;;;;;;;5.22;0.93;;;;;;;;;;5085527;28;20521;-76
2023/02/18 07:43:17;;;;;;;4.03;0.63;;;;;;;;;;5077191;28;20091;-76
2023/02/18 07:45:42;;;;;;;2.53;0.82;;;;;;;;;;5076356;28;20361;-76
2023/02/18 07:48:08;;;;;;;3.45;0.77;;;;;;;;;;5072994;28;20021;-76
2023/02/18 07:50:34;;;;;;;4.13;0.90;;;;;;;;;;5077315;28;20020;-76
2023/02/18 07:52:59;;;;;;;3.78;0.75;;;;;;;;;;5088976;28;20099;-76
2023/02/18 07:55:47;;;;;;;4.80;0.90;;;;;;;;;;5078491;28;20099;-75
2023/02/18 07:58:09;;;;;;;7.60;1.25;;;;;;;;;;5069764;28;20027;-76
2023/02/18 08:00:35;;;;;;;4.78;0.85;;;;;;;;;;5065583;28;20032;-75
2023/02/18 08:03:01;;;;;;;3.15;0.90;;;;;;;;;;5066127;28;20025;-76
2023/02/18 08:05:26;;;;;;;3.55;1.10;;;;;;;;;;5076370;28;20099;-76
2023/02/18 08:07:51;;;;;;;4.57;0.90;;;;;;;;;;5072082;28;20017;-76
2023/02/18 08:10:19;;;;;;;3.15;0.80;;;;;;;;;;5071260;28;20308;-76
2023/02/18 08:12:44;;;;;;;3.83;0.80;;;;;;;;;;5077432;28;20020;-76
2023/02/18 08:15:10;;;;;;;2.85;0.63;;;;;;;;;;5076027;28;20138;-76
2023/02/18 08:17:35;;;;;;;4.57;0.68;;;;;;;;;;5073414;28;20020;-76
2023/02/18 08:20:00;;;;;;;3.05;0.80;;;;;;;;;;5073507;28;20374;-76
2023/02/18 08:22:25;;;;;;;5.82;0.82;;;;;;;;;;5073230;28;20422;-76
2023/02/18 08:24:53;;;;;;;2.60;0.85;;;;;;;;;;5074910;28;20019;-76
2023/02/18 08:27:18;;;;;;;5.40;0.80;;;;;;;;;;5078461;28;20032;-76
2023/02/18 08:29:43;;;;;;;4.50;1.08;;;;;;;;;;5076005;28;20024;-75
2023/02/18 08:32:08;;;;;;;1.85;0.55;;;;;;;;;;5069512;28;20190;-76
2023/02/18 08:34:34;;;;;;;10.00;1.10;;;;;;;;;;5083878;28;20020;-76
2023/02/18 08:37:00;;;;;;;2.08;0.82;;;;;;;;;;5073064;28;20025;-76
2023/02/18 08:39:25;;;;;;;5.80;1.38;;;;;;;;;;5080515;28;20034;-76
2023/02/18 08:41:50;;;;;;;3.65;1.02;;;;;;;;;;5088426;28;20025;-76
2023/02/18 08:44:16;;;;;;;2.47;0.80;;;;;;;;;;5070938;28;20456;-76
2023/02/18 08:46:41;;;;;;;4.30;1.05;;;;;;;;;;5076093;28;20059;-76
2023/02/18 08:49:06;;;;;;;1.02;0.57;;;;;;;;;;5074048;28;20108;-76
2023/02/18 08:51:31;;;;;;;6.03;1.58;;;;;;;;;;5090901;28;20020;-76
2023/02/18 08:53:57;;;;;;;2.97;0.95;;;;;;;;;;5086683;28;20439;-76
2023/02/18 08:56:22;;;;;;;4.63;0.85;;;;;;;;;;5092778;28;20024;-76
2023/02/18 08:58:47;;;;;;;5.72;1.20;;;;;;;;;;5082665;28;20085;-76
2023/02/18 09:01:13;;;;;;;6.43;0.80;;;;;;;;;;5091552;28;20020;-76
2023/02/18 09:03:38;;;;;;;3.70;1.15;;;;;;;;;;5084981;28;20451;-76
2023/02/18 09:06:04;;;;;;;2.17;0.80;;;;;;;;;;5084231;28;20041;-76
2023/02/18 09:08:29;;;;;;;8.02;0.82;;;;;;;;;;5088326;28;20035;-75
2023/02/18 09:10:55;;;;;;;9.27;1.38;;;;;;;;;;5086989;28;20512;-76
2023/02/18 09:13:21;;;;;;;3.33;0.90;;;;;;;;;;5078021;28;20450;-76
2023/02/18 09:15:54;;;;;;;10.27;1.35;;;;;;;;;;5080737;28;20020;-76
2023/02/18 09:18:19;;;;;;;4.25;0.70;;;;;;;;;;5081558;28;20021;-76
2023/02/18 09:20:44;;;;;;;2.60;0.60;;;;;;;;;;5069050;28;20047;-76
2023/02/18 09:23:09;;;;;;;2.45;0.73;;;;;;;;;;5086874;28;20020;-76
2023/02/18 09:25:38;;;;;;;4.50;0.68;;;;;;;;;;5091245;28;20028;-76
2023/02/18 09:28:03;;;;;;;0.82;0.43;;;;;;;;;;5086888;28;20031;-76
2023/02/18 09:30:28;;;;;;;4.63;0.93;;;;;;;;;;5073836;28;20021;-76
2023/02/18 09:32:53;;;;;;;2.55;0.70;;;;;;;;;;5076748;28;20375;-76
2023/02/18 09:35:19;;;;;;;5.75;0.77;;;;;;;;;;5090588;28;20024;-76
2023/02/18 09:37:44;;;;;;;5.93;0.70;;;;;;;;;;5092671;28;20061;-76
2023/02/18 09:40:20;;;;;;;1.98;0.75;;;;;;;;;;5090924;28;20383;-76
2023/02/18 09:42:45;;;;;;;5.68;0.90;;;;;;;;;;5090892;28;20031;-76
2023/02/18 09:45:11;;;;;;;2.72;1.02;;;;;;;;;;5069288;28;20386;-76
2023/02/18 09:47:38;;;;;;;5.05;1.30;;;;;;;;;;5087875;28;20024;-76
2023/02/18 09:50:09;;;;;;;4.32;0.60;;;;;;;;;;5092218;28;20138;-76
2023/02/18 09:52:37;;;;;;;4.00;0.90;;;;;;;;;;5091875;28;20047;-76
2023/02/18 09:55:13;;;;;;;4.35;1.17;;;;;;;;;;5084300;28;20027;-76
2023/02/18 09:57:43;;;;;;;3.15;0.57;;;;;;;;;;5090680;28;20027;-76
2023/02/18 10:00:11;;;;;;;6.93;0.65;;;;;;;;;;5092050;28;20035;-76
2023/02/18 10:02:38;;;;;;;1.45;0.60;;;;;;;;;;5091604;28;20028;-76
2023/02/18 10:05:04;;;;;;;3.97;0.73;;;;;;;;;;5091488;28;20024;-76
2023/02/18 10:07:30;;;;;;;2.75;0.47;;;;;;;;;;5085566;28;20468;-76
2023/02/18 10:09:56;;;;;;;3.92;0.57;;;;;;;;;;5090226;28;20034;-76
2023/02/18 10:12:23;;;;;;;8.30;0.93;;;;;;;;;;5090580;28;20111;-76
2023/02/18 10:14:50;;;;;;;1.92;0.80;;;;;;;;;;5089775;28;20026;-76
2023/02/18 10:17:16;;;;;;;3.75;0.63;;;;;;;;;;5091937;28;20030;-76
2023/02/18 10:19:42;;;;;;;2.92;0.70;;;;;;;;;;5077911;28;20077;-76
2023/02/18 10:22:09;;;;;;;2.53;0.73;;;;;;;;;;5091601;28;20102;-76
2023/02/18 10:24:37;;;;;;;2.95;0.52;;;;;;;;;;5090056;28;20360;-76
2023/02/18 10:27:04;;;;;;;4.15;1.05;;;;;;;;;;5091700;28;20056;-76
2023/02/18 10:29:31;;;;;;;4.45;0.88;;;;;;;;;;5090181;28;20020;-76
2023/02/18 10:32:11;;;;;;;7.25;1.02;;;;;;;;;;5077691;28;20065;-76
2023/02/18 10:34:46;;;;;;;2.47;0.52;;;;;;;;;;5084185;28;20107;-76
2023/02/18 10:37:11;;;;;;;1.80;0.50;;;;;;;;;;5091623;28;20413;-76
2023/02/18 10:39:51;;;;;;;1.38;0.50;;;;;;;;;;5091307;28;20039;-76
2023/02/18 10:42:22;;;;;;;7.75;0.63;;;;;;;;;;5083573;28;20367;-76
2023/02/18 10:45:02;;;;;;;2.75;0.63;;;;;;;;;;5070933;28;20044;-76
2023/02/18 10:47:46;;;;;;;1.45;0.50;;;;;;;;;;5082659;28;20069;-76
2023/02/18 10:50:16;;;;;;;3.67;0.60;;;;;;;;;;5080863;28;20016;-76
2023/02/18 10:52:43;;;;;;;2.17;0.60;;;;;;;;;;5091142;28;20463;-76
2023/02/18 10:55:10;;;;;;;2.47;0.93;;;;;;;;;;5085508;28;20450;-76
2023/02/18 10:57:44;;;;;;;1.45;0.68;;;;;;;;;;5091188;28;20077;-76
2023/02/18 11:00:17;;;;;;;5.07;0.90;;;;;;;;;;5093127;28;20135;-76
2023/02/18 11:02:43;;;;;;;2.58;0.60;;;;;;;;;;5093895;28;20494;-76
2023/02/18 11:05:25;;;;;;;3.33;0.77;;;;;;;;;;5093608;28;20020;-76
2023/02/18 11:07:52;;;;;;;2.15;0.65;;;;;;;;;;5086941;28;20352;-76
2023/02/18 11:10:25;;;;;;;2.65;0.80;;;;;;;;;;5094707;28;20365;-76
2023/02/18 11:12:54;;;;;;;4.53;0.80;;;;;;;;;;5095273;28;20028;-76
2023/02/18 11:15:22;;;;;;;1.88;0.63;;;;;;;;;;5093358;28;20107;-76
2023/02/18 11:17:49;;;;;;;2.97;0.50;;;;;;;;;;5089735;28;20476;-76
2023/02/18 11:20:29;;;;;;;1.65;0.82;;;;;;;;;;5087496;28;20052;-76
2023/02/18 11:23:06;;;;;;;4.10;0.60;;;;;;;;;;5091151;28;20537;-76
2023/02/18 11:25:33;;;;;;;6.72;0.93;;;;;;;;;;5090532;28;20057;-76
2023/02/18 11:28:21;;;;;;;1.17;0.50;;;;;;;;;;5091782;28;20032;-76
2023/02/18 11:30:47;;;;;;;6.95;1.17;;;;;;;;;;5090588;28;20100;-76
2023/02/18 11:33:31;;;;;;;3.13;1.15;;;;;;;;;;5094915;28;20435;-76
2023/02/18 11:35:57;;;;;;;3.42;1.10;;;;;;;;;;5092566;28;20023;-76
2023/02/18 11:38:25;;;;;;;7.55;0.80;;;;;;;;;;5094847;28;20024;-76
2023/02/18 11:41:00;;;;;;;5.57;0.88;;;;;;;;;;5089127;28;20032;-76
2023/02/18 11:43:28;;;;;;;4.32;0.90;;;;;;;;;;5094437;28;20051;-76
2023/02/18 11:46:13;;;;;;;3.15;0.98;;;;;;;;;;5089394;28;20016;-76
2023/02/18 11:48:39;;;;;;;4.90;0.82;;;;;;;;;;5094414;28;20027;-77
2023/02/18 11:51:04;;;;;;;4.15;0.80;;;;;;;;;;5093131;28;20020;-75
2023/02/18 11:53:34;;;;;;;1.90;0.88;;;;;;;;;;5077163;28;20017;-75
2023/02/18 11:56:00;;;;;;;2.70;0.80;;;;;;;;;;5090835;28;20012;-76
2023/02/18 11:58:26;;;;;;;2.15;0.70;;;;;;;;;;5093181;28;20529;-76
2023/02/18 12:00:59;;;;;;;3.13;0.70;;;;;;;;;;5093845;28;20052;-76
2023/02/18 12:03:39;;;;;;;2.00;0.93;;;;;;;;;;5093598;28;20046;-76
2023/02/18 12:06:11;;;;;;;5.10;0.60;;;;;;;;;;5072143;28;20025;-76
2023/02/18 12:09:03;;;;;;;7.00;1.10;;;;;;;;;;5094229;28;20443;-76
2023/02/18 12:11:31;;;;;;;3.63;1.50;;;;;;;;;;5090600;28;20028;-76
2023/02/18 12:13:57;;;;;;;4.32;0.82;;;;;;;;;;5094177;28;20098;-76
2023/02/18 12:16:25;;;;;;;5.03;1.42;;;;;;;;;;5088286;28;20127;-76
2023/02/18 12:19:06;;;;;;;4.65;1.13;;;;;;;;;;5092660;28;20528;-76
2023/02/18 12:21:40;;;;;;;4.20;0.90;;;;;;;;;;5093841;28;20150;-76
2023/02/18 12:24:24;;;;;;;3.80;1.10;;;;;;;;;;5094025;28;20035;-76
2023/02/18 12:26:53;;;;;;;5.65;0.80;;;;;;;;;;5093814;28;20477;-76
2023/02/18 12:29:21;;;;;;;3.00;0.80;;;;;;;;;;5086653;28;20048;-76
2023/02/18 12:31:49;;;;;;;7.75;0.70;;;;;;;;;;5093559;28;20024;-76
2023/02/18 12:34:20;;;;;;;5.53;0.85;;;;;;;;;;5091643;28;20024;-76
2023/02/18 12:37:04;;;;;;;2.35;0.88;;;;;;;;;;5093707;28;20452;-76
2023/02/18 12:39:35;;;;;;;6.47;2.13;;;;;;;;;;5093190;28;20027;-76
2023/02/18 12:42:05;;;;;;;3.30;0.90;;;;;;;;;;5084949;28;20032;-76
2023/02/18 12:44:34;;;;;;;2.63;1.00;;;;;;;;;;5087382;28;20019;-75
2023/02/18 12:47:18;;;;;;;3.20;0.82;;;;;;;;;;5078237;28;20020;-76
2023/02/18 12:49:49;;;;;;;7.63;0.90;;;;;;;;;;5093102;28;20103;-77
2023/02/18 12:52:22;;;;;;;4.32;1.15;;;;;;;;;;5087000;28;20027;-76
2023/02/18 12:54:47;;;;;;;5.45;1.10;;;;;;;;;;5066086;28;20020;-76
2023/02/18 12:57:13;;;;;;;4.25;0.88;;;;;;;;;;5093097;28;20111;-76
2023/02/18 12:59:38;;;;;;;8.52;1.45;;;;;;;;;;5092902;28;20020;-76
2023/02/18 13:02:16;;;;;;;5.75;1.20;;;;;;;;;;5093194;28;20027;-76
2023/02/18 13:04:41;;;;;;;3.15;1.20;;;;;;;;;;5085541;28;20028;-76
2023/02/18 13:07:25;;;;;;;5.38;1.20;;;;;;;;;;5093144;28;20016;-76
2023/02/18 13:10:04;;;;;;;2.45;1.08;;;;;;;;;;5092630;28;20020;-76
2023/02/18 13:12:32;;;;;;;5.32;1.77;;;;;;;;;;5091386;28;20429;-76
2023/02/18 13:15:03;;;;;;;4.70;1.55;;;;;;;;;;5092584;28;20027;-76
2023/02/18 13:17:31;;;;;;;2.80;1.20;;;;;;;;;;5084606;28;20096;-76
2023/02/18 13:19:59;;;;;;;7.68;1.27;;;;;;;;;;5092660;28;20046;-76
2023/02/18 13:22:25;;;;;;;5.70;0.88;;;;;;;;;;5092560;28;20074;-76
2023/02/18 13:24:53;;;;;;;2.42;0.80;;;;;;;;;;5092538;28;20051;-76
2023/02/18 13:27:21;;;;;;;6.18;1.20;;;;;;;;;;5088236;28;20375;-76
2023/02/18 13:30:05;;;;;;;4.70;1.35;;;;;;;;;;5085569;28;20440;-75
2023/02/18 13:32:34;;;;;;;4.63;1.30;;;;;;;;;;5092966;28;20443;-76
2023/02/18 13:35:05;;;;;;;6.22;0.95;;;;;;;;;;5092667;28;20052;-76
2023/02/18 13:37:42;;;;;;;2.42;1.00;;;;;;;;;;5092696;28;20054;-76
2023/02/18 13:40:15;;;;;;;2.67;1.00;;;;;;;;;;5080262;28;20021;-76
2023/02/18 13:42:40;;;;;;;4.25;1.10;;;;;;;;;;5089812;28;20028;-76
2023/02/18 13:45:22;;;;;;;2.03;0.85;;;;;;;;;;5078201;28;20036;-76
2023/02/18 13:47:51;;;;;;;2.67;1.50;;;;;;;;;;5090715;28;20023;-76
2023/02/18 13:50:25;;;;;;;8.07;1.45;;;;;;;;;;5090474;28;20012;-76
2023/02/18 13:52:56;;;;;;;7.72;1.92;;;;;;;;;;5080679;28;20463;-76
2023/02/18 13:55:24;;;;;;;3.95;1.15;;;;;;;;;;5091750;28;20072;-76
2023/02/18 13:57:52;;;;;;;2.95;1.42;;;;;;;;;;5091677;28;20015;-76
2023/02/18 14:00:24;;;;;;;5.82;1.65;;;;;;;;;;5074960;28;20560;-77
2023/02/18 14:02:57;;;;;;;3.53;1.20;;;;;;;;;;5069545;28;20023;-76
2023/02/18 14:05:23;;;;;;;2.58;1.48;;;;;;;;;;5085151;28;20017;-75
2023/02/18 14:07:49;;;;;;;2.95;1.25;;;;;;;;;;5073463;28;20009;-75
2023/02/18 14:10:15;;;;;;;5.53;1.70;;;;;;;;;;5079212;28;20444;-76
2023/02/18 14:12:55;;;;;;;2.80;1.30;;;;;;;;;;5072519;28;20021;-76
2023/02/18 14:15:20;;;;;;;5.10;1.50;;;;;;;;;;5077225;28;20027;-75
2023/02/18 14:18:04;;;;;;;4.55;1.33;;;;;;;;;;5088153;28;20396;-75
2023/02/18 14:20:35;;;;;;;5.80;2.00;;;;;;;;;;5068596;28;20047;-75
2023/02/18 14:23:10;;;;;;;12.50;2.95;;;;;;;;;;5078069;28;20130;-75
2023/02/18 14:25:37;;;;;;;4.50;1.63;;;;;;;;;;5070947;28;20395;-75
2023/02/18 14:28:11;;;;;;;3.28;1.80;;;;;;;;;;5075036;28;20024;-75
2023/02/18 14:30:40;;;;;;;5.32;2.42;;;;;;;;;;5083930;28;20052;-75
2023/02/18 14:33:12;;;;;;;3.60;2.17;;;;;;;;;;5075566;28;20087;-75
2023/02/18 14:36:04;;;;;;;4.47;1.52;;;;;;;;;;5086571;28;20051;-75
2023/02/18 14:38:32;;;;;;;5.22;1.63;;;;;;;;;;5078373;28;20038;-75
2023/02/18 14:41:01;;;;;;;4.18;1.55;;;;;;;;;;5088660;28;20047;-75
2023/02/18 14:43:32;;;;;;;4.95;1.55;;;;;;;;;;5091236;28;20395;-75
2023/02/18 14:46:04;;;;;;;6.10;1.88;;;;;;;;;;5077575;28;20048;-75